Koyo — JD2279 — position and weather

sailwx.info

Track history (hours):
 
Tides and Currents Weather Stations Pressure Air Temp Water Temp Dewpoint Dewpoint Depression Visibility Wind Speed Wind Dir Waves Ship Positions

Koyo

Last reported at 2016-Jul-19 16:29 UTC. Time now 2016-Jul-26 16:06 UTC.
Position N 34°33' E 134°46'.

Length 80 m; draft 3.7 m.

Type: Cargo ship. MMSI: 431301812.

Date/timePositionNaut miles runAvg speedWind from/ knotsBaromVisibWave heightAir tempDewpointWater temp
2016-Jul-19 16:29N 34°33' E 134°46'1011.0
2016-Jul-19 15:33N 34°37' E 134°57'1010.1
2016-Jul-19 14:33N 34°36' E 135°09'5 4.8
2016-Jul-19 13:31N 34°39' E 135°15'0 0.0
2016-Jul-19 12:31N 34°39' E 135°15'0 0.0
2016-Jul-19 11:25N 34°39' E 135°15'0 0.0
2016-Jul-19 10:31N 34°39' E 135°15'0 0.1
2016-Jul-19 09:31N 34°39' E 135°15'0 0.0
2016-Jul-19 08:31N 34°39' E 135°15'0 0.0
2016-Jul-19 07:31N 34°39' E 135°15'0 0.0
2016-Jul-19 04:31N 34°39' E 135°15'0 0.0
2016-Jul-19 03:25N 34°39' E 135°15'0 0.0
2016-Jul-19 02:10N 34°39' E 135°15'0 0.0
2016-Jul-19 01:28N 34°39' E 135°15'0 0.1
2016-Jul-19 00:28N 34°39' E 135°15'0 0.0
2016-Jul-18 23:22N 34°39' E 135°15'0 0.0
2016-Jul-18 22:28N 34°39' E 135°15'0 0.0
2016-Jul-18 21:28N 34°39' E 135°15'0 0.0
2016-Jul-18 20:22N 34°39' E 135°15'0 0.0
2016-Jul-18 19:28N 34°39' E 135°15'0 0.0
2016-Jul-18 18:28N 34°39' E 135°15'0 0.0
2016-Jul-18 17:16N 34°39' E 135°15'0 0.1
2016-Jul-18 16:28N 34°39' E 135°15'0 0.0
2016-Jul-18 15:28N 34°39' E 135°15'0 0.1
2016-Jul-18 14:28N 34°39' E 135°15'0 0.0
2016-Jul-18 13:28N 34°39' E 135°15'0 0.0
2016-Jul-18 12:22N 34°39' E 135°15'0 0.1
2016-Jul-18 11:28N 34°39' E 135°15'0 0.0
2016-Jul-18 10:28N 34°39' E 135°15'0 0.0
2016-Jul-18 09:28N 34°39' E 135°15'0 0.0
2016-Jul-18 08:28N 34°39' E 135°15'0 0.0
2016-Jul-18 07:22N 34°39' E 135°15'0 0.0
2016-Jul-18 06:22N 34°39' E 135°15'0 0.0
2016-Jul-18 05:28N 34°39' E 135°15'0 0.0
2016-Jul-18 04:28N 34°39' E 135°15'0 0.0
2016-Jul-18 03:28N 34°39' E 135°15'3 2.7
2016-Jul-18 02:33N 34°41' E 135°17'3 2.5
2016-Jul-18 01:33N 34°42' E 135°14'0 0.0
2016-Jul-18 00:28N 34°42' E 135°14'0 0.0
2016-Jul-17 23:16N 34°42' E 135°14'0 0.0
2016-Jul-17 22:22N 34°42' E 135°14'0 0.0
2016-Jul-17 21:28N 34°42' E 135°14'0 0.0
2016-Jul-17 20:28N 34°42' E 135°14'0 0.0
2016-Jul-17 19:28N 34°42' E 135°14'0 0.0
2016-Jul-17 18:28N 34°42' E 135°14'0 0.0
2016-Jul-17 17:28N 34°42' E 135°14'0 0.0
2016-Jul-17 16:28N 34°42' E 135°14'0 0.0
2016-Jul-17 15:28N 34°42' E 135°14'0 0.0
2016-Jul-17 14:28N 34°42' E 135°14'0 0.0
2016-Jul-17 13:28N 34°42' E 135°14'0 0.0
2016-Jul-17 12:28N 34°42' E 135°14'0 0.0
2016-Jul-17 11:28N 34°42' E 135°14'0 0.0
2016-Jul-17 10:28N 34°42' E 135°14'0 0.0
2016-Jul-17 09:28N 34°42' E 135°14'0 0.0
2016-Jul-17 08:22N 34°42' E 135°14'0 0.0
2016-Jul-17 07:10N 34°42' E 135°14'0 0.0
2016-Jul-17 06:10N 34°42' E 135°14'0 0.0
2016-Jul-17 04:16N 34°42' E 135°14'0 0.0
2016-Jul-17 03:22N 34°42' E 135°14'0 0.0
2016-Jul-17 02:28N 34°42' E 135°14'0 0.0
2016-Jul-17 01:28N 34°42' E 135°14'0 0.0
2016-Jul-17 00:28N 34°42' E 135°14'0 0.0
2016-Jul-16 23:28N 34°42' E 135°14'0 0.0
2016-Jul-16 22:28N 34°42' E 135°14'0 0.0
2016-Jul-16 21:28N 34°42' E 135°14'0 0.0
2016-Jul-16 20:28N 34°42' E 135°14'0 0.0
2016-Jul-16 19:28N 34°42' E 135°14'0 0.0
2016-Jul-16 18:28N 34°42' E 135°14'0 0.0
2016-Jul-16 17:28N 34°42' E 135°14'0 0.0
2016-Jul-16 16:22N 34°42' E 135°14'0 0.0
2016-Jul-16 15:34N 34°42' E 135°14'0 0.0
2016-Jul-16 14:28N 34°42' E 135°14'0 0.0
2016-Jul-16 13:22N 34°42' E 135°14'0 0.0
2016-Jul-16 12:28N 34°42' E 135°14'0 0.0
2016-Jul-16 11:28N 34°42' E 135°14'0 0.0
2016-Jul-16 10:28N 34°42' E 135°14'0 0.0
2016-Jul-16 09:28N 34°42' E 135°14'0 0.0
2016-Jul-16 08:22N 34°42' E 135°14'1 0.7
2016-Jul-16 07:33N 34°41' E 135°14'9 8.9
2016-Jul-16 06:33N 34°35' E 135°07'13 0.6
2016-Jul-15 09:26N 34°35' E 134°51'1112.5
2016-Jul-15 08:33N 34°36' E 135°05'9 8.7
2016-Jul-15 07:33N 34°40' E 135°14'0 0.0
2016-Jul-15 06:33N 34°40' E 135°14'1 1.2
2016-Jul-15 05:33N 34°38' E 135°15'0 0.0
2016-Jul-15 04:32N 34°38' E 135°15'0 0.0
2016-Jul-15 03:32N 34°38' E 135°15'0 0.0
2016-Jul-15 02:32N 34°38' E 135°15'0 0.0
2016-Jul-15 01:26N 34°38' E 135°15'0 0.0
2016-Jul-15 00:08N 34°38' E 135°15'0 0.0
2016-Jul-14 23:26N 34°38' E 135°15'7 7.7
2016-Jul-14 22:33N 34°36' E 135°08'1110.8
2016-Jul-14 21:33N 34°35' E 134°55'2 0.1
2016-Jul-13 07:12N 34°35' E 134°52'912.9
2016-Jul-13 06:31N 34°37' E 135°02'1111.1
2016-Jul-13 05:33N 34°39' E 135°15'1 1.1
2016-Jul-13 04:33N 34°40' E 135°14'0 0.0
2016-Jul-13 03:33N 34°40' E 135°14'0 0.0
2016-Jul-13 02:33N 34°40' E 135°14'0 0.5
2016-Jul-13 01:34N 34°39' E 135°15'1 0.8
2016-Jul-13 00:33N 34°39' E 135°15'7 7.4
2016-Jul-12 23:33N 34°35' E 135°07'1312.6
2016-Jul-12 22:33N 34°34' E 134°52'12 0.3
2016-Jul-11 04:33N 34°36' E 135°06'1212.1
2016-Jul-11 03:33N 34°39' E 135°21'4 3.5
2016-Jul-11 02:27N 34°38' E 135°25'4 4.7
2016-Jul-11 01:33N 34°37' E 135°20'5 5.2
2016-Jul-11 00:32N 34°39' E 135°14'1 0.5
2016-Jul-10 23:33N 34°40' E 135°15'3 2.5
2016-Jul-10 22:33N 34°41' E 135°13'0 0.0
2016-Jul-10 21:33N 34°41' E 135°13'0 0.0
2016-Jul-10 20:33N 34°41' E 135°13'0 0.0
2016-Jul-10 19:33N 34°41' E 135°13'0 0.0
2016-Jul-10 18:33N 34°41' E 135°13'0 0.0
2016-Jul-10 17:33N 34°41' E 135°13'0 0.0
2016-Jul-10 16:33N 34°41' E 135°13'0 0.0
2016-Jul-10 15:33N 34°41' E 135°13'0 0.0
2016-Jul-10 14:33N 34°41' E 135°13'0 0.0
2016-Jul-10 13:33N 34°41' E 135°13'0 0.0
2016-Jul-10 12:33N 34°41' E 135°13'0 0.0
2016-Jul-10 11:33N 34°41' E 135°13'0 0.0
2016-Jul-10 10:33N 34°41' E 135°13'0 0.0
2016-Jul-10 09:33N 34°41' E 135°13'0 0.0
2016-Jul-10 08:33N 34°41' E 135°13'0 0.0
2016-Jul-10 07:33N 34°41' E 135°13'2 2.2
2016-Jul-10 06:33N 34°40' E 135°15'0 0.1
2016-Jul-10 05:24N 34°40' E 135°14'1 1.1
2016-Jul-10 04:33N 34°40' E 135°15'2 1.8
2016-Jul-10 03:32N 34°41' E 135°13'0 0.0
2016-Jul-10 02:32N 34°41' E 135°13'0 0.0
2016-Jul-10 01:32N 34°41' E 135°13'0 0.0
2016-Jul-10 00:32N 34°41' E 135°13'0 0.0
2016-Jul-09 23:26N 34°41' E 135°13'0 0.0
2016-Jul-09 22:32N 34°41' E 135°13'0 0.0
2016-Jul-09 21:26N 34°41' E 135°13'0 0.0
2016-Jul-09 20:32N 34°41' E 135°13'0 0.0
2016-Jul-09 19:32N 34°41' E 135°13'0 0.0
2016-Jul-09 18:32N 34°41' E 135°13'1 1.1
2016-Jul-09 17:34N 34°41' E 135°14'9 8.9
2016-Jul-09 16:33N 34°35' E 135°06'  
Track history (hours):
 
Tides and Currents Weather Stations Pressure Air Temp Water Temp Dewpoint Dewpoint Depression Visibility Wind Speed Wind Dir Waves Ship Positions

Koyo

Last reported at 2016-Jul-19 16:29 UTC. Time now 2016-Jul-26 16:06 UTC.
Position N 34°33' E 134°46'.

Length 80 m; draft 3.7 m.

Type: Cargo ship. MMSI: 431301812.

Date/timePositionNaut miles runAvg speedWind from/ knotsBaromVisibWave heightAir tempDewpointWater temp
2016-Jul-19 16:29N 34°33' E 134°46'1011.0
2016-Jul-19 15:33N 34°37' E 134°57'1010.1
2016-Jul-19 14:33N 34°36' E 135°09'5 4.8
2016-Jul-19 13:31N 34°39' E 135°15'0 0.0
2016-Jul-19 12:31N 34°39' E 135°15'0 0.0
2016-Jul-19 11:25N 34°39' E 135°15'0 0.0
2016-Jul-19 10:31N 34°39' E 135°15'0 0.1
2016-Jul-19 09:31N 34°39' E 135°15'0 0.0
2016-Jul-19 08:31N 34°39' E 135°15'0 0.0
2016-Jul-19 07:31N 34°39' E 135°15'0 0.0
2016-Jul-19 04:31N 34°39' E 135°15'0 0.0
2016-Jul-19 03:25N 34°39' E 135°15'0 0.0
2016-Jul-19 02:10N 34°39' E 135°15'0 0.0
2016-Jul-19 01:28N 34°39' E 135°15'0 0.1
2016-Jul-19 00:28N 34°39' E 135°15'0 0.0
2016-Jul-18 23:22N 34°39' E 135°15'0 0.0
2016-Jul-18 22:28N 34°39' E 135°15'0 0.0
2016-Jul-18 21:28N 34°39' E 135°15'0 0.0
2016-Jul-18 20:22N 34°39' E 135°15'0 0.0
2016-Jul-18 19:28N 34°39' E 135°15'0 0.0
2016-Jul-18 18:28N 34°39' E 135°15'0 0.0
2016-Jul-18 17:16N 34°39' E 135°15'0 0.1
2016-Jul-18 16:28N 34°39' E 135°15'0 0.0
2016-Jul-18 15:28N 34°39' E 135°15'0 0.1
2016-Jul-18 14:28N 34°39' E 135°15'0 0.0
2016-Jul-18 13:28N 34°39' E 135°15'0 0.0
2016-Jul-18 12:22N 34°39' E 135°15'0 0.1
2016-Jul-18 11:28N 34°39' E 135°15'0 0.0
2016-Jul-18 10:28N 34°39' E 135°15'0 0.0
2016-Jul-18 09:28N 34°39' E 135°15'0 0.0
2016-Jul-18 08:28N 34°39' E 135°15'0 0.0
2016-Jul-18 07:22N 34°39' E 135°15'0 0.0
2016-Jul-18 06:22N 34°39' E 135°15'0 0.0
2016-Jul-18 05:28N 34°39' E 135°15'0 0.0
2016-Jul-18 04:28N 34°39' E 135°15'0 0.0
2016-Jul-18 03:28N 34°39' E 135°15'3 2.7
2016-Jul-18 02:33N 34°41' E 135°17'3 2.5
2016-Jul-18 01:33N 34°42' E 135°14'0 0.0
2016-Jul-18 00:28N 34°42' E 135°14'0 0.0
2016-Jul-17 23:16N 34°42' E 135°14'0 0.0
2016-Jul-17 22:22N 34°42' E 135°14'0 0.0
2016-Jul-17 21:28N 34°42' E 135°14'0 0.0
2016-Jul-17 20:28N 34°42' E 135°14'0 0.0
2016-Jul-17 19:28N 34°42' E 135°14'0 0.0
2016-Jul-17 18:28N 34°42' E 135°14'0 0.0
2016-Jul-17 17:28N 34°42' E 135°14'0 0.0
2016-Jul-17 16:28N 34°42' E 135°14'0 0.0
2016-Jul-17 15:28N 34°42' E 135°14'0 0.0
2016-Jul-17 14:28N 34°42' E 135°14'0 0.0
2016-Jul-17 13:28N 34°42' E 135°14'0 0.0
2016-Jul-17 12:28N 34°42' E 135°14'0 0.0
2016-Jul-17 11:28N 34°42' E 135°14'0 0.0
2016-Jul-17 10:28N 34°42' E 135°14'0 0.0
2016-Jul-17 09:28N 34°42' E 135°14'0 0.0
2016-Jul-17 08:22N 34°42' E 135°14'0 0.0
2016-Jul-17 07:10N 34°42' E 135°14'0 0.0
2016-Jul-17 06:10N 34°42' E 135°14'0 0.0
2016-Jul-17 04:16N 34°42' E 135°14'0 0.0
2016-Jul-17 03:22N 34°42' E 135°14'0 0.0
2016-Jul-17 02:28N 34°42' E 135°14'0 0.0
2016-Jul-17 01:28N 34°42' E 135°14'0 0.0
2016-Jul-17 00:28N 34°42' E 135°14'0 0.0
2016-Jul-16 23:28N 34°42' E 135°14'0 0.0
2016-Jul-16 22:28N 34°42' E 135°14'0 0.0
2016-Jul-16 21:28N 34°42' E 135°14'0 0.0
2016-Jul-16 20:28N 34°42' E 135°14'0 0.0
2016-Jul-16 19:28N 34°42' E 135°14'0 0.0
2016-Jul-16 18:28N 34°42' E 135°14'0 0.0
2016-Jul-16 17:28N 34°42' E 135°14'0 0.0
2016-Jul-16 16:22N 34°42' E 135°14'0 0.0
2016-Jul-16 15:34N 34°42' E 135°14'0 0.0
2016-Jul-16 14:28N 34°42' E 135°14'0 0.0
2016-Jul-16 13:22N 34°42' E 135°14'0 0.0
2016-Jul-16 12:28N 34°42' E 135°14'0 0.0
2016-Jul-16 11:28N 34°42' E 135°14'0 0.0
2016-Jul-16 10:28N 34°42' E 135°14'0 0.0
2016-Jul-16 09:28N 34°42' E 135°14'0 0.0
2016-Jul-16 08:22N 34°42' E 135°14'1 0.7
2016-Jul-16 07:33N 34°41' E 135°14'9 8.9
2016-Jul-16 06:33N 34°35' E 135°07'13 0.6
2016-Jul-15 09:26N 34°35' E 134°51'1112.5
2016-Jul-15 08:33N 34°36' E 135°05'9 8.7
2016-Jul-15 07:33N 34°40' E 135°14'0 0.0
2016-Jul-15 06:33N 34°40' E 135°14'1 1.2
2016-Jul-15 05:33N 34°38' E 135°15'0 0.0
2016-Jul-15 04:32N 34°38' E 135°15'0 0.0
2016-Jul-15 03:32N 34°38' E 135°15'0 0.0
2016-Jul-15 02:32N 34°38' E 135°15'0 0.0
2016-Jul-15 01:26N 34°38' E 135°15'0 0.0
2016-Jul-15 00:08N 34°38' E 135°15'0 0.0
2016-Jul-14 23:26N 34°38' E 135°15'7 7.7
2016-Jul-14 22:33N 34°36' E 135°08'1110.8
2016-Jul-14 21:33N 34°35' E 134°55'2 0.1
2016-Jul-13 07:12N 34°35' E 134°52'912.9
2016-Jul-13 06:31N 34°37' E 135°02'1111.1
2016-Jul-13 05:33N 34°39' E 135°15'1 1.1
2016-Jul-13 04:33N 34°40' E 135°14'0 0.0
2016-Jul-13 03:33N 34°40' E 135°14'0 0.0
2016-Jul-13 02:33N 34°40' E 135°14'0 0.5
2016-Jul-13 01:34N 34°39' E 135°15'1 0.8
2016-Jul-13 00:33N 34°39' E 135°15'7 7.4
2016-Jul-12 23:33N 34°35' E 135°07'1312.6
2016-Jul-12 22:33N 34°34' E 134°52'12 0.3
2016-Jul-11 04:33N 34°36' E 135°06'1212.1
2016-Jul-11 03:33N 34°39' E 135°21'4 3.5
2016-Jul-11 02:27N 34°38' E 135°25'4 4.7
2016-Jul-11 01:33N 34°37' E 135°20'5 5.2
2016-Jul-11 00:32N 34°39' E 135°14'1 0.5
2016-Jul-10 23:33N 34°40' E 135°15'3 2.5
2016-Jul-10 22:33N 34°41' E 135°13'0 0.0
2016-Jul-10 21:33N 34°41' E 135°13'0 0.0
2016-Jul-10 20:33N 34°41' E 135°13'0 0.0
2016-Jul-10 19:33N 34°41' E 135°13'0 0.0
2016-Jul-10 18:33N 34°41' E 135°13'0 0.0
2016-Jul-10 17:33N 34°41' E 135°13'0 0.0
2016-Jul-10 16:33N 34°41' E 135°13'0 0.0
2016-Jul-10 15:33N 34°41' E 135°13'0 0.0
2016-Jul-10 14:33N 34°41' E 135°13'0 0.0
2016-Jul-10 13:33N 34°41' E 135°13'0 0.0
2016-Jul-10 12:33N 34°41' E 135°13'0 0.0
2016-Jul-10 11:33N 34°41' E 135°13'0 0.0
2016-Jul-10 10:33N 34°41' E 135°13'0 0.0
2016-Jul-10 09:33N 34°41' E 135°13'0 0.0
2016-Jul-10 08:33N 34°41' E 135°13'0 0.0
2016-Jul-10 07:33N 34°41' E 135°13'2 2.2
2016-Jul-10 06:33N 34°40' E 135°15'0 0.1
2016-Jul-10 05:24N 34°40' E 135°14'1 1.1
2016-Jul-10 04:33N 34°40' E 135°15'2 1.8
2016-Jul-10 03:32N 34°41' E 135°13'0 0.0
2016-Jul-10 02:32N 34°41' E 135°13'0 0.0
2016-Jul-10 01:32N 34°41' E 135°13'0 0.0
2016-Jul-10 00:32N 34°41' E 135°13'0 0.0
2016-Jul-09 23:26N 34°41' E 135°13'0 0.0
2016-Jul-09 22:32N 34°41' E 135°13'0 0.0
2016-Jul-09 21:26N 34°41' E 135°13'0 0.0
2016-Jul-09 20:32N 34°41' E 135°13'0 0.0
2016-Jul-09 19:32N 34°41' E 135°13'0 0.0
2016-Jul-09 18:32N 34°41' E 135°13'1 1.1
2016-Jul-09 17:34N 34°41' E 135°14'9 8.9
2016-Jul-09 16:33N 34°35' E 135°06'  

Dump ship's entire track history